createdAt,value
2022-10-05T00:01:54.839Z,16.90
2022-10-05T00:04:25.128Z,16.80
2022-10-05T00:07:01.646Z,16.90
2022-10-05T00:09:33.021Z,16.90
2022-10-05T00:12:07.191Z,16.90
2022-10-05T00:14:37.544Z,16.60
2022-10-05T00:17:06.566Z,16.60
2022-10-05T00:19:37.701Z,16.30
2022-10-05T00:22:13.191Z,16.40
2022-10-05T00:24:41.518Z,16.40
2022-10-05T00:27:19.071Z,16.50
2022-10-05T00:29:50.206Z,16.60
2022-10-05T00:32:18.504Z,16.60
2022-10-05T00:34:47.953Z,16.40
2022-10-05T00:37:16.635Z,16.20
2022-10-05T00:39:45.339Z,16.20
2022-10-05T00:42:39.355Z,16.30
2022-10-05T00:45:13.243Z,16.10
2022-10-05T00:47:55.798Z,16.10
2022-10-05T00:50:46.377Z,16.20
2022-10-05T00:53:28.589Z,16.40
2022-10-05T00:56:04.593Z,16.20
2022-10-05T00:58:50.034Z,16.10
2022-10-05T01:01:26.957Z,16.10
2022-10-05T01:04:06.243Z,16.10
2022-10-05T01:06:46.054Z,15.60
2022-10-05T01:09:19.712Z,15.30
2022-10-05T01:11:53.623Z,15.30
2022-10-05T01:14:28.964Z,15.50
2022-10-05T01:17:04.845Z,15.60
2022-10-05T01:20:06.600Z,15.50
2022-10-05T01:22:50.522Z,15.50
2022-10-05T01:25:24.826Z,15.70
2022-10-05T01:28:03.470Z,15.80
2022-10-05T01:30:37.627Z,16.00
2022-10-05T01:33:13.793Z,16.00
2022-10-05T01:35:52.246Z,16.00
2022-10-05T01:38:37.161Z,15.80
2022-10-05T01:41:16.901Z,15.50
2022-10-05T01:43:50.457Z,15.60
2022-10-05T01:46:28.515Z,15.70
2022-10-05T01:49:13.148Z,15.80
2022-10-05T01:51:53.503Z,15.90
2022-10-05T01:54:33.226Z,15.60
2022-10-05T01:57:07.962Z,15.50
2022-10-05T01:59:54.424Z,15.70
2022-10-05T02:02:25.385Z,15.80
2022-10-05T02:05:02.593Z,15.70
2022-10-05T02:07:35.494Z,15.30
2022-10-05T02:10:09.178Z,15.40
2022-10-05T02:12:39.470Z,15.50
2022-10-05T02:15:16.148Z,15.60
2022-10-05T02:17:49.552Z,15.90
2022-10-05T02:20:24.980Z,16.00
2022-10-05T02:22:55.557Z,16.00
2022-10-05T02:25:28.072Z,16.00
2022-10-05T02:28:03.327Z,15.80
2022-10-05T02:30:39.358Z,15.50
2022-10-05T02:33:11.626Z,15.20
2022-10-05T02:35:39.843Z,15.40
2022-10-05T02:38:15.537Z,15.50
2022-10-05T02:40:54.312Z,15.50
2022-10-05T02:43:30.750Z,15.70
2022-10-05T02:46:13.445Z,15.60
2022-10-05T02:48:49.745Z,15.60
2022-10-05T02:51:22.556Z,15.50
2022-10-05T02:54:02.243Z,15.20
2022-10-05T02:56:35.623Z,15.50
2022-10-05T02:59:12.310Z,15.40
2022-10-05T03:01:49.058Z,15.40
2022-10-05T03:04:27.354Z,15.30
2022-10-05T03:07:05.942Z,15.40
2022-10-05T03:09:42.882Z,15.30
2022-10-05T03:12:26.575Z,15.40
2022-10-05T03:15:04.736Z,15.40
2022-10-05T03:17:41.266Z,15.50
2022-10-05T03:20:19.181Z,15.60
2022-10-05T03:22:51.627Z,15.40
2022-10-05T03:26:13.817Z,15.40
2022-10-05T03:29:03.108Z,15.40
2022-10-05T03:31:38.007Z,15.40
2022-10-05T03:34:12.468Z,15.60
2022-10-05T03:36:50.399Z,15.70
2022-10-05T03:39:25.102Z,15.50
2022-10-05T03:42:01.557Z,15.50
2022-10-05T03:44:40.475Z,15.60
2022-10-05T03:47:20.621Z,15.70
2022-10-05T03:50:19.549Z,15.70
2022-10-05T03:52:52.595Z,15.50
2022-10-05T03:55:26.359Z,15.40
2022-10-05T03:57:58.716Z,15.40
2022-10-05T04:00:27.698Z,15.60
2022-10-05T04:03:03.270Z,15.70
2022-10-05T04:05:38.095Z,15.80
2022-10-05T04:08:10.527Z,15.70
2022-10-05T04:10:43.623Z,15.80
2022-10-05T04:13:17.584Z,15.70
2022-10-05T04:15:51.662Z,15.70
2022-10-05T04:18:26.677Z,15.90
2022-10-05T04:21:02.621Z,15.80
2022-10-05T04:23:42.404Z,15.60
2022-10-05T04:26:14.909Z,15.70
2022-10-05T04:28:52.577Z,15.80
2022-10-05T04:31:34.837Z,15.70
2022-10-05T04:34:10.534Z,15.70
2022-10-05T04:36:46.974Z,15.60
2022-10-05T04:39:23.848Z,15.60
2022-10-05T04:42:09.193Z,15.50
2022-10-05T04:44:57.083Z,15.60
2022-10-05T04:47:42.566Z,15.70
2022-10-05T04:50:24.848Z,15.90
2022-10-05T04:53:07.656Z,15.60
2022-10-05T04:55:48.050Z,15.80
2022-10-05T04:58:25.167Z,15.60
2022-10-05T05:01:04.216Z,15.50
2022-10-05T05:03:54.203Z,15.40
2022-10-05T05:06:33.723Z,15.60
2022-10-05T05:09:35.052Z,15.80
2022-10-05T05:12:17.149Z,15.70
2022-10-05T05:15:22.329Z,15.50
2022-10-05T05:18:06.053Z,15.60
2022-10-05T05:20:45.779Z,15.50
2022-10-05T05:23:22.286Z,15.50
2022-10-05T05:26:04.126Z,15.60
2022-10-05T05:28:41.044Z,15.50
2022-10-05T05:31:19.608Z,15.60
2022-10-05T05:33:58.108Z,15.70
2022-10-05T05:36:41.599Z,15.60
2022-10-05T05:39:25.398Z,15.80
2022-10-05T05:42:01.484Z,15.60
2022-10-05T05:44:38.558Z,15.60
2022-10-05T05:47:18.604Z,15.50
2022-10-05T05:50:04.279Z,15.50
2022-10-05T05:52:40.489Z,15.40
2022-10-05T05:55:19.041Z,15.40
2022-10-05T05:57:54.398Z,15.40
2022-10-05T06:00:25.174Z,15.40
2022-10-05T06:02:58.249Z,15.30
2022-10-05T06:05:32.515Z,15.50
2022-10-05T06:08:07.355Z,15.70
2022-10-05T06:10:41.577Z,15.60
2022-10-05T06:13:17.497Z,15.70
2022-10-05T06:15:50.835Z,15.60
2022-10-05T06:18:22.306Z,15.80
2022-10-05T06:20:55.257Z,15.80
2022-10-05T06:23:29.475Z,15.90
2022-10-05T06:26:18.225Z,16.10
2022-10-05T06:28:53.387Z,16.10
2022-10-05T06:31:36.832Z,16.10
2022-10-05T06:34:15.461Z,16.00
2022-10-05T06:36:50.053Z,16.30
2022-10-05T06:39:49.348Z,16.10
2022-10-05T06:42:34.564Z,16.00
2022-10-05T06:45:15.529Z,16.10
2022-10-05T06:47:50.945Z,16.00
2022-10-05T06:50:30.857Z,15.90
2022-10-05T06:53:09.952Z,15.80
2022-10-05T06:55:46.959Z,15.60
2022-10-05T06:58:27.952Z,15.80
2022-10-05T07:01:04.411Z,15.90
2022-10-05T07:03:42.499Z,16.00
2022-10-05T07:06:17.864Z,16.10
2022-10-05T07:09:04.429Z,16.10
2022-10-05T07:14:44.581Z,16.30
2022-10-05T07:17:29.275Z,16.50
2022-10-05T07:20:05.011Z,16.50
2022-10-05T07:22:51.471Z,16.50
2022-10-05T07:25:22.344Z,16.70
2022-10-05T07:27:56.088Z,16.80
2022-10-05T07:30:24.727Z,16.80
2022-10-05T07:33:05.436Z,16.90
2022-10-05T07:36:00.635Z,16.90
2022-10-05T07:38:34.543Z,17.00
2022-10-05T07:41:07.572Z,16.90
2022-10-05T07:44:01.627Z,16.90
2022-10-05T07:46:40.485Z,17.00
2022-10-05T07:49:19.517Z,17.20
2022-10-05T07:51:52.383Z,17.20
2022-10-05T07:54:26.358Z,17.30
2022-10-05T07:57:01.512Z,17.30
2022-10-05T07:59:35.742Z,17.40
2022-10-05T08:02:13.923Z,17.40
2022-10-05T08:04:52.564Z,17.50
2022-10-05T08:07:21.435Z,17.50
2022-10-05T08:09:55.911Z,17.60
2022-10-05T08:12:33.376Z,17.60
2022-10-05T08:15:06.578Z,17.50
2022-10-05T08:17:44.818Z,17.40
2022-10-05T08:20:29.544Z,17.50
2022-10-05T08:23:03.398Z,17.60
2022-10-05T08:25:42.108Z,17.60
2022-10-05T08:28:18.939Z,17.60
2022-10-05T08:30:56.207Z,17.70
2022-10-05T08:33:27.851Z,17.60
2022-10-05T08:36:07.272Z,17.70
2022-10-05T08:38:36.227Z,17.80
2022-10-05T08:41:46.219Z,17.80
2022-10-05T08:44:48.052Z,17.80
2022-10-05T08:47:22.743Z,17.80
2022-10-05T08:50:32.883Z,17.90
2022-10-05T08:53:24.559Z,17.90
2022-10-05T08:56:10.618Z,18.00
2022-10-05T08:58:57.789Z,17.80
2022-10-05T09:01:43.573Z,17.80
2022-10-05T09:04:33.868Z,17.90
2022-10-05T09:07:22.016Z,17.90
2022-10-05T09:10:19.033Z,18.00
2022-10-05T09:13:42.106Z,17.90
2022-10-05T09:16:28.110Z,17.90
2022-10-05T09:19:26.100Z,17.80
2022-10-05T09:21:59.873Z,18.00
2022-10-05T09:24:32.601Z,18.20
2022-10-05T09:27:15.037Z,18.30
2022-10-05T09:30:19.348Z,18.20
2022-10-05T09:33:15.634Z,18.10
2022-10-05T09:36:25.599Z,18.20
2022-10-05T09:39:23.778Z,18.20
2022-10-05T09:42:21.572Z,18.30
2022-10-05T09:45:21.127Z,18.40
2022-10-05T09:48:26.042Z,18.40
2022-10-05T09:51:26.035Z,18.30
2022-10-05T09:54:23.929Z,18.40
2022-10-05T09:57:12.319Z,18.60
2022-10-05T10:00:09.154Z,18.70
2022-10-05T10:03:05.489Z,18.90
2022-10-05T10:05:56.247Z,18.90
2022-10-05T10:08:37.511Z,18.90
2022-10-05T10:11:17.979Z,19.00
2022-10-05T10:14:14.933Z,19.00
2022-10-05T10:17:01.746Z,19.00
2022-10-05T10:19:57.744Z,19.20
2022-10-05T10:23:08.365Z,19.30
2022-10-05T10:26:17.367Z,19.30
2022-10-05T10:29:11.081Z,19.60
2022-10-05T10:32:07.639Z,19.70
2022-10-05T10:34:58.496Z,19.80
2022-10-05T10:38:17.337Z,19.90
2022-10-05T10:41:17.981Z,20.10
2022-10-05T10:44:30.959Z,20.00
2022-10-05T10:47:24.630Z,20.40
2022-10-05T10:50:16.943Z,20.70
2022-10-05T10:52:54.974Z,20.60
2022-10-05T10:55:38.744Z,20.60
2022-10-05T10:58:42.240Z,20.70
2022-10-05T11:01:31.354Z,20.90
2022-10-05T11:04:38.024Z,20.90
2022-10-05T11:07:40.731Z,20.90
2022-10-05T11:10:50.753Z,20.90
2022-10-05T11:13:49.253Z,20.90
2022-10-05T11:16:46.156Z,21.00
2022-10-05T11:20:02.993Z,20.90
2022-10-05T11:22:59.793Z,21.00
2022-10-05T11:25:42.947Z,21.10
2022-10-05T11:28:27.563Z,21.10
2022-10-05T11:31:26.416Z,21.00
2022-10-05T11:34:26.847Z,21.00
2022-10-05T11:37:12.023Z,21.00
2022-10-05T11:39:46.161Z,21.00
2022-10-05T11:42:55.940Z,21.00
2022-10-05T11:45:30.958Z,21.00
2022-10-05T11:48:40.276Z,20.90
2022-10-05T11:51:41.884Z,21.00
2022-10-05T11:54:58.588Z,21.00
2022-10-05T11:57:35.102Z,21.00
2022-10-05T12:00:13.048Z,20.90
2022-10-05T12:03:10.463Z,21.00
2022-10-05T12:05:51.335Z,21.00
2022-10-05T12:08:31.316Z,21.00
2022-10-05T12:11:10.287Z,20.90
2022-10-05T12:13:44.746Z,20.90
2022-10-05T12:16:19.666Z,20.70
2022-10-05T12:18:55.376Z,20.70
2022-10-05T12:21:43.456Z,20.70
2022-10-05T12:24:23.370Z,20.70
2022-10-05T12:27:02.082Z,20.60
2022-10-05T12:29:40.725Z,20.60
2022-10-05T12:32:13.974Z,20.60
2022-10-05T12:34:51.185Z,20.50
2022-10-05T12:37:40.413Z,20.50
2022-10-05T12:40:26.359Z,20.50
2022-10-05T12:43:06.159Z,20.40
2022-10-05T12:45:54.484Z,20.40
2022-10-05T12:48:56.196Z,20.40
2022-10-05T12:51:35.920Z,20.40
2022-10-05T12:54:13.649Z,20.40
2022-10-05T12:56:48.751Z,20.40
2022-10-05T12:59:31.676Z,20.30
2022-10-05T13:02:07.422Z,20.40
2022-10-05T13:04:42.699Z,20.30
2022-10-05T13:07:29.629Z,20.40
2022-10-05T13:10:06.657Z,20.40
2022-10-05T13:15:25.256Z,20.30
2022-10-05T13:18:05.326Z,20.30
2022-10-05T13:20:38.965Z,20.40
2022-10-05T13:23:14.972Z,20.40
2022-10-05T13:25:51.744Z,20.50
2022-10-05T13:28:26.061Z,20.50
2022-10-05T13:31:06.486Z,20.50
2022-10-05T13:33:58.257Z,20.40
2022-10-05T13:36:36.520Z,20.50
2022-10-05T13:39:11.599Z,20.40
2022-10-05T13:41:51.886Z,20.50
2022-10-05T13:44:26.976Z,20.50
2022-10-05T13:47:03.245Z,20.50
2022-10-05T13:49:42.745Z,20.50
2022-10-05T13:52:21.707Z,20.60
2022-10-05T13:54:57.852Z,20.60
2022-10-05T13:57:46.167Z,20.60
2022-10-05T14:00:26.312Z,20.60
2022-10-05T14:02:58.803Z,20.60
2022-10-05T14:05:29.131Z,20.60
2022-10-05T14:07:59.332Z,20.70
2022-10-05T14:10:37.593Z,20.60
2022-10-05T14:13:22.798Z,20.60
2022-10-05T14:16:05.233Z,20.50
2022-10-05T14:18:38.159Z,20.60
2022-10-05T14:21:22.184Z,20.50
2022-10-05T14:23:50.670Z,20.40
2022-10-05T14:26:31.780Z,20.50
2022-10-05T14:29:02.847Z,20.60
2022-10-05T14:31:35.296Z,20.60
2022-10-05T14:34:30.063Z,20.60
2022-10-05T14:37:01.016Z,20.60
2022-10-05T14:39:34.049Z,20.70
2022-10-05T14:42:14.834Z,20.70
2022-10-05T14:44:43.524Z,20.70
2022-10-05T14:47:22.721Z,20.70
2022-10-05T14:50:09.658Z,20.70
2022-10-05T14:52:41.191Z,20.70
2022-10-05T14:55:24.946Z,20.70
2022-10-05T14:58:06.904Z,20.70
2022-10-05T15:00:43.614Z,20.70
2022-10-05T15:03:31.376Z,20.80
2022-10-05T15:06:03.863Z,20.80
2022-10-05T15:08:48.840Z,20.90
2022-10-05T15:11:26.768Z,20.80
2022-10-05T15:13:56.475Z,20.70
2022-10-05T15:16:28.455Z,20.70
2022-10-05T15:19:04.458Z,20.70
2022-10-05T15:22:01.421Z,20.70
2022-10-05T15:24:38.919Z,20.70
2022-10-05T15:27:17.846Z,20.70
2022-10-05T15:30:04.620Z,20.70
2022-10-05T15:32:43.174Z,20.80
2022-10-05T15:35:38.172Z,20.80
2022-10-05T15:38:16.467Z,20.80
2022-10-05T15:40:50.558Z,20.80
2022-10-05T15:43:22.215Z,20.80
2022-10-05T15:45:58.327Z,20.80
2022-10-05T15:48:36.034Z,20.80
2022-10-05T15:51:15.302Z,20.70
2022-10-05T15:54:13.718Z,20.70
2022-10-05T15:56:49.145Z,20.60
2022-10-05T15:59:25.335Z,20.60
2022-10-05T16:01:57.843Z,20.60
2022-10-05T16:04:37.751Z,20.60
2022-10-05T16:07:39.363Z,20.60
2022-10-05T16:10:17.390Z,20.50
2022-10-05T16:15:48.738Z,20.50
2022-10-05T16:18:56.448Z,20.40
2022-10-05T16:21:33.457Z,20.40
2022-10-05T16:24:16.598Z,20.30
2022-10-05T16:26:57.281Z,20.30
2022-10-05T16:29:39.635Z,20.20
2022-10-05T16:32:15.028Z,20.20
2022-10-05T16:34:56.202Z,20.20
2022-10-05T16:37:31.021Z,20.20
2022-10-05T16:40:01.336Z,20.10
2022-10-05T16:42:46.425Z,20.00
2022-10-05T16:45:45.779Z,19.90
2022-10-05T16:48:22.230Z,20.10
2022-10-05T16:51:08.720Z,20.00
2022-10-05T16:53:41.266Z,19.90
2022-10-05T16:56:14.796Z,19.80
2022-10-05T16:58:57.998Z,19.70
2022-10-05T17:01:42.483Z,19.70
2022-10-05T17:04:25.852Z,19.60
2022-10-05T17:07:11.977Z,19.60
2022-10-05T17:09:52.447Z,19.60
2022-10-05T17:12:33.889Z,19.70
2022-10-05T17:15:19.392Z,19.60
2022-10-05T17:18:09.113Z,19.50
2022-10-05T17:20:49.264Z,19.50
2022-10-05T17:23:32.160Z,19.40
2022-10-05T17:26:29.652Z,19.40
2022-10-05T17:29:09.457Z,19.30
2022-10-05T17:32:19.309Z,19.20
2022-10-05T17:35:18.713Z,19.30
2022-10-05T17:38:14.246Z,19.20
2022-10-05T17:41:03.238Z,19.20
2022-10-05T17:43:32.582Z,19.20
2022-10-05T17:46:02.019Z,19.20
2022-10-05T17:49:01.385Z,19.10
2022-10-05T17:52:17.368Z,19.20
2022-10-05T17:55:30.713Z,19.10
2022-10-05T17:58:02.440Z,19.00
2022-10-05T18:00:51.014Z,19.10
2022-10-05T18:03:38.935Z,19.00
2022-10-05T18:06:37.423Z,19.00
2022-10-05T18:09:33.154Z,19.00
2022-10-05T18:12:33.876Z,19.00
2022-10-05T18:15:04.246Z,19.00
2022-10-05T18:17:45.414Z,19.00
2022-10-05T18:20:30.489Z,19.00
2022-10-05T18:23:40.699Z,19.00
2022-10-05T18:26:29.171Z,18.90
2022-10-05T18:29:14.172Z,18.90
2022-10-05T18:31:52.744Z,18.90
2022-10-05T18:34:31.786Z,18.90
2022-10-05T18:37:16.674Z,18.90
2022-10-05T18:40:17.077Z,18.90
2022-10-05T18:42:55.170Z,18.80
2022-10-05T18:45:28.111Z,18.90
2022-10-05T18:48:12.024Z,18.80
2022-10-05T18:50:48.623Z,18.80
2022-10-05T18:53:26.915Z,18.70
2022-10-05T18:56:02.292Z,18.70
2022-10-05T18:58:38.036Z,18.70
2022-10-05T19:01:42.133Z,18.70
2022-10-05T19:04:23.545Z,18.70
2022-10-05T19:07:02.045Z,18.60
2022-10-05T19:09:58.421Z,18.60
2022-10-05T19:12:41.434Z,18.60
2022-10-05T19:15:17.954Z,18.60
2022-10-05T19:17:59.839Z,18.60
2022-10-05T19:20:35.657Z,18.60
2022-10-05T19:23:31.642Z,18.60
2022-10-05T19:26:10.317Z,18.60
2022-10-05T19:28:47.560Z,18.60
2022-10-05T19:31:30.260Z,18.60
2022-10-05T19:34:16.554Z,18.60
2022-10-05T19:36:59.199Z,18.60
2022-10-05T19:39:38.810Z,18.50
2022-10-05T19:42:44.501Z,18.50
2022-10-05T19:45:23.381Z,18.60
2022-10-05T19:48:10.257Z,18.60
2022-10-05T19:50:40.027Z,18.50
2022-10-05T19:53:15.026Z,18.50
2022-10-05T19:55:46.109Z,18.60
2022-10-05T19:58:22.951Z,18.50
2022-10-05T20:01:00.015Z,18.60
2022-10-05T20:03:31.913Z,18.50
2022-10-05T20:06:02.129Z,18.50
2022-10-05T20:08:39.982Z,18.40
2022-10-05T20:11:14.391Z,18.40
2022-10-05T20:13:48.782Z,18.40
2022-10-05T20:16:45.321Z,18.30
2022-10-05T20:19:55.110Z,18.30
2022-10-05T20:22:34.849Z,18.60
2022-10-05T20:25:05.985Z,18.40
2022-10-05T20:27:38.129Z,18.40
2022-10-05T20:30:08.172Z,18.50
2022-10-05T20:32:36.502Z,18.50
2022-10-05T20:35:07.894Z,18.40
2022-10-05T20:37:36.882Z,18.30
2022-10-05T20:40:06.474Z,18.20
2022-10-05T20:42:34.891Z,18.10
2022-10-05T20:45:04.202Z,18.20
2022-10-05T20:47:33.141Z,18.10
2022-10-05T20:50:05.578Z,18.10
2022-10-05T20:52:35.258Z,18.00
2022-10-05T20:55:04.436Z,18.10
2022-10-05T20:57:32.749Z,18.00
2022-10-05T21:00:01.039Z,18.00
2022-10-05T21:02:29.628Z,17.90
2022-10-05T21:04:57.936Z,17.90
2022-10-05T21:07:26.257Z,18.00
2022-10-05T21:09:55.951Z,17.90
2022-10-05T21:12:24.259Z,18.00
2022-10-05T21:14:53.197Z,17.90
2022-10-05T21:17:21.484Z,17.90
2022-10-05T21:19:50.335Z,17.80
2022-10-05T21:22:18.610Z,17.80
2022-10-05T21:24:48.500Z,17.80
2022-10-05T21:27:18.606Z,17.70
2022-10-05T21:29:47.368Z,17.90
2022-10-05T21:32:15.671Z,17.90
2022-10-05T21:34:43.957Z,17.80
2022-10-05T21:37:12.236Z,17.80
2022-10-05T21:39:40.515Z,17.80
2022-10-05T21:42:08.803Z,17.80
2022-10-05T21:44:39.824Z,17.80
2022-10-05T21:47:08.220Z,17.80
2022-10-05T21:49:37.654Z,17.90
2022-10-05T21:52:06.827Z,17.80
2022-10-05T21:54:35.911Z,17.80
2022-10-05T21:57:04.722Z,17.80
2022-10-05T21:59:35.503Z,17.80
2022-10-05T22:02:05.730Z,17.80
2022-10-05T22:04:34.009Z,17.70
2022-10-05T22:07:02.341Z,17.60
2022-10-05T22:09:30.663Z,17.70
2022-10-05T22:11:58.930Z,17.60
2022-10-05T22:14:28.396Z,17.80
2022-10-05T22:16:56.696Z,17.80
2022-10-05T22:19:26.454Z,17.80
2022-10-05T22:21:54.720Z,17.60
2022-10-05T22:24:23.096Z,17.70
2022-10-05T22:26:52.906Z,17.60
2022-10-05T22:29:21.773Z,17.60
2022-10-05T22:31:50.390Z,17.60
2022-10-05T22:34:19.373Z,17.80
2022-10-05T22:36:49.558Z,17.80
2022-10-05T22:39:19.464Z,17.90
2022-10-05T22:41:47.938Z,17.90
2022-10-05T22:44:16.222Z,17.70
2022-10-05T22:46:44.580Z,17.60
2022-10-05T22:49:12.842Z,17.60
2022-10-05T22:51:41.122Z,17.70
2022-10-05T22:54:10.842Z,17.60
2022-10-05T22:56:39.120Z,17.80
2022-10-05T22:59:07.410Z,17.80
2022-10-05T23:01:35.771Z,17.70
2022-10-05T23:04:04.559Z,17.70
2022-10-05T23:06:33.089Z,17.80
2022-10-05T23:09:01.374Z,18.00
2022-10-05T23:11:31.474Z,18.10
2022-10-05T23:16:35.211Z,17.90
2022-10-05T23:19:03.580Z,17.70
2022-10-05T23:21:32.100Z,17.80
2022-10-05T23:24:00.388Z,18.00
2022-10-05T23:26:30.087Z,17.90
2022-10-05T23:28:58.640Z,17.60
2022-10-05T23:31:30.319Z,17.70
2022-10-05T23:33:58.634Z,17.70
2022-10-05T23:36:31.381Z,17.50
2022-10-05T23:39:00.109Z,17.40
2022-10-05T23:41:28.715Z,17.40
2022-10-05T23:43:58.379Z,17.40
2022-10-05T23:46:26.749Z,17.30
2022-10-05T23:48:55.080Z,17.20
2022-10-05T23:51:23.373Z,17.30
2022-10-05T23:53:51.691Z,17.30
2022-10-05T23:56:19.978Z,17.20
2022-10-05T23:58:48.255Z,17.20
